createdAt,value
2022-08-04T00:00:02.413Z,100.00
2022-08-04T00:02:33.862Z,100.00
2022-08-04T00:05:05.372Z,100.00
2022-08-04T00:07:44.711Z,100.00
2022-08-04T00:10:07.639Z,100.00
2022-08-04T00:12:39.767Z,100.00
2022-08-04T00:15:10.322Z,100.00
2022-08-04T00:17:47.986Z,100.00
2022-08-04T00:20:18.490Z,100.00
2022-08-04T00:22:48.131Z,100.00
2022-08-04T00:25:17.221Z,100.00
2022-08-04T00:27:47.130Z,100.00
2022-08-04T00:30:16.127Z,100.00
2022-08-04T00:32:45.028Z,100.00
2022-08-04T00:35:17.106Z,100.00
2022-08-04T00:37:47.420Z,100.00
2022-08-04T00:40:21.965Z,100.00
2022-08-04T00:42:59.188Z,100.00
2022-08-04T00:46:14.148Z,100.00
2022-08-04T00:48:11.161Z,100.00
2022-08-04T00:50:44.390Z,100.00
2022-08-04T00:53:26.769Z,100.00
2022-08-04T00:56:15.070Z,100.00
2022-08-04T00:58:45.322Z,100.00
2022-08-04T01:01:15.697Z,100.00
2022-08-04T01:03:45.981Z,100.00
2022-08-04T01:06:19.032Z,100.00
2022-08-04T01:08:55.067Z,100.00
2022-08-04T01:11:28.073Z,100.00
2022-08-04T01:13:59.489Z,100.00
2022-08-04T01:16:28.604Z,100.00
2022-08-04T01:19:04.896Z,100.00
2022-08-04T01:21:47.351Z,100.00
2022-08-04T01:24:17.624Z,100.00
2022-08-04T01:26:58.702Z,100.00
2022-08-04T01:29:29.388Z,100.00
2022-08-04T01:32:00.839Z,100.00
2022-08-04T01:34:31.117Z,100.00
2022-08-04T01:37:01.404Z,100.00
2022-08-04T01:39:44.530Z,100.00
2022-08-04T01:42:22.514Z,100.00
2022-08-04T01:44:46.263Z,100.00
2022-08-04T01:47:16.505Z,100.00
2022-08-04T01:49:47.701Z,100.00
2022-08-04T01:52:17.941Z,100.00
2022-08-04T01:54:47.185Z,100.00
2022-08-04T01:57:38.244Z,100.00
2022-08-04T01:59:49.809Z,100.00
2022-08-04T02:02:18.764Z,100.00
2022-08-04T02:04:47.565Z,100.00
2022-08-04T02:07:34.218Z,100.00
2022-08-04T02:10:11.372Z,100.00
2022-08-04T02:12:42.659Z,100.00
2022-08-04T02:15:13.004Z,100.00
2022-08-04T02:17:43.755Z,100.00
2022-08-04T02:20:16.976Z,100.00
2022-08-04T02:22:50.340Z,100.00
2022-08-04T02:25:20.593Z,100.00
2022-08-04T02:28:00.335Z,100.00
2022-08-04T02:30:26.097Z,100.00
2022-08-04T02:32:57.271Z,100.00
2022-08-04T02:35:47.900Z,100.00
2022-08-04T02:38:36.455Z,100.00
2022-08-04T02:41:06.837Z,100.00
2022-08-04T02:43:52.105Z,100.00
2022-08-04T02:46:17.876Z,100.00
2022-08-04T02:48:39.166Z,100.00
2022-08-04T02:51:07.955Z,100.00
2022-08-04T02:53:39.205Z,100.00
2022-08-04T02:56:08.522Z,100.00
2022-08-04T02:58:39.360Z,100.00
2022-08-04T03:01:09.188Z,100.00
2022-08-04T03:03:43.417Z,100.00
2022-08-04T03:06:13.740Z,100.00
2022-08-04T03:09:00.434Z,100.00
2022-08-04T03:11:45.552Z,100.00
2022-08-04T03:14:35.691Z,100.00
2022-08-04T03:17:06.586Z,100.00
2022-08-04T03:19:53.236Z,100.00
2022-08-04T03:22:59.787Z,100.00
2022-08-04T03:25:26.065Z,100.00
2022-08-04T03:28:08.426Z,100.00
2022-08-04T03:30:44.824Z,100.00
2022-08-04T03:33:26.932Z,100.00
2022-08-04T03:36:00.139Z,100.00
2022-08-04T03:38:54.798Z,100.00
2022-08-04T03:41:54.849Z,100.00
2022-08-04T03:44:02.675Z,100.00
2022-08-04T03:46:32.941Z,100.00
2022-08-04T03:49:03.175Z,100.00
2022-08-04T03:51:51.129Z,100.00
2022-08-04T03:54:21.389Z,100.00
2022-08-04T03:56:51.632Z,100.00
2022-08-04T03:59:37.087Z,100.00
2022-08-04T04:02:07.603Z,100.00
2022-08-04T04:04:53.190Z,100.00
2022-08-04T04:07:41.362Z,100.00
2022-08-04T04:10:31.494Z,100.00
2022-08-04T04:13:07.612Z,100.00
2022-08-04T04:15:47.077Z,100.00
2022-08-04T04:18:27.791Z,100.00
2022-08-04T04:21:13.287Z,100.00
2022-08-04T04:23:43.586Z,100.00
2022-08-04T04:26:31.575Z,100.00
2022-08-04T04:29:04.513Z,100.00
2022-08-04T04:31:36.423Z,100.00
2022-08-04T04:34:06.694Z,100.00
2022-08-04T04:36:42.945Z,100.00
2022-08-04T04:39:16.192Z,100.00
2022-08-04T04:42:02.906Z,100.00
2022-08-04T04:44:33.229Z,100.00
2022-08-04T04:47:03.485Z,100.00
2022-08-04T04:49:33.729Z,100.00
2022-08-04T04:52:04.259Z,100.00
2022-08-04T04:54:40.546Z,100.00
2022-08-04T04:57:13.857Z,100.00
2022-08-04T04:59:47.487Z,100.00
2022-08-04T05:02:23.749Z,100.00
2022-08-04T05:05:00.133Z,100.00
2022-08-04T05:07:50.310Z,100.00
2022-08-04T05:10:37.623Z,100.00
2022-08-04T05:14:34.916Z,100.00
2022-08-04T05:15:49.454Z,100.00
2022-08-04T05:18:19.697Z,100.00
2022-08-04T05:20:51.928Z,100.00
2022-08-04T05:23:22.160Z,100.00
2022-08-04T05:25:59.918Z,100.00
2022-08-04T05:28:30.995Z,100.00
2022-08-04T05:31:04.016Z,100.00
2022-08-04T05:33:36.915Z,100.00
2022-08-04T05:36:18.503Z,100.00
2022-08-04T05:38:40.341Z,100.00
2022-08-04T05:41:09.998Z,100.00
2022-08-04T05:43:41.344Z,100.00
2022-08-04T05:46:10.906Z,100.00
2022-08-04T05:48:41.041Z,100.00
2022-08-04T05:51:11.041Z,100.00
2022-08-04T05:53:41.714Z,100.00
2022-08-04T05:56:12.047Z,100.00
2022-08-04T05:58:41.227Z,100.00
2022-08-04T06:01:11.955Z,100.00
2022-08-04T06:03:41.095Z,100.00
2022-08-04T06:06:11.309Z,100.00
2022-08-04T06:08:40.135Z,100.00
2022-08-04T06:11:11.518Z,100.00
2022-08-04T06:13:50.611Z,100.00
2022-08-04T06:16:29.988Z,100.00
2022-08-04T06:20:00.175Z,100.00
2022-08-04T06:21:22.856Z,100.00
2022-08-04T06:23:53.722Z,100.00
2022-08-04T06:26:22.992Z,100.00
2022-08-04T06:28:53.519Z,100.00
2022-08-04T06:32:31.059Z,100.00
2022-08-04T06:34:13.133Z,100.00
2022-08-04T06:36:42.642Z,96.12
2022-08-04T06:39:12.903Z,99.81
2022-08-04T06:41:55.253Z,98.41
2022-08-04T06:44:16.360Z,96.05
2022-08-04T06:46:45.270Z,93.43
2022-08-04T06:49:14.869Z,94.88
2022-08-04T06:51:49.436Z,100.00
2022-08-04T06:54:14.572Z,96.25
2022-08-04T06:56:45.421Z,91.20
2022-08-04T06:59:15.030Z,92.07
2022-08-04T07:01:44.319Z,96.09
2022-08-04T07:04:13.259Z,97.22
2022-08-04T07:06:42.376Z,94.87
2022-08-04T07:09:11.442Z,100.00
2022-08-04T07:11:44.714Z,94.23
2022-08-04T07:14:12.247Z,91.08
2022-08-04T07:16:42.827Z,96.98
2022-08-04T07:19:13.823Z,89.73
2022-08-04T07:21:42.112Z,92.25
2022-08-04T07:24:12.586Z,94.00
2022-08-04T07:26:41.324Z,88.83
2022-08-04T07:29:11.597Z,88.75
2022-08-04T07:31:40.408Z,91.17
2022-08-04T07:34:11.491Z,84.40
2022-08-04T07:36:43.553Z,84.13
2022-08-04T07:39:11.767Z,92.18
2022-08-04T07:41:45.132Z,83.77
2022-08-04T07:44:17.136Z,84.11
2022-08-04T07:46:47.383Z,85.33
2022-08-04T07:49:55.275Z,85.89
2022-08-04T07:51:46.725Z,86.16
2022-08-04T07:54:16.096Z,83.96
2022-08-04T07:56:45.725Z,82.38
2022-08-04T07:59:16.276Z,80.43
2022-08-04T08:01:45.208Z,80.34
2022-08-04T08:04:15.364Z,80.39
2022-08-04T08:06:44.258Z,79.86
2022-08-04T08:09:14.950Z,80.65
2022-08-04T08:12:36.714Z,78.34
2022-08-04T08:14:16.956Z,77.70
2022-08-04T08:16:45.920Z,78.47
2022-08-04T08:19:14.735Z,75.92
2022-08-04T08:21:59.036Z,77.12
2022-08-04T08:24:16.370Z,77.16
2022-08-04T08:26:45.238Z,76.26
2022-08-04T08:29:14.124Z,84.21
2022-08-04T08:31:56.421Z,75.64
2022-08-04T08:34:15.114Z,72.58
2022-08-04T08:36:46.998Z,73.02
2022-08-04T08:39:33.668Z,69.95
2022-08-04T08:42:19.176Z,71.66
2022-08-04T08:44:49.468Z,65.86
2022-08-04T08:47:19.930Z,66.20
2022-08-04T08:50:07.142Z,63.75
2022-08-04T08:53:00.942Z,63.73
2022-08-04T08:55:41.112Z,65.07
2022-08-04T08:58:14.535Z,61.32
2022-08-04T09:00:44.788Z,63.77
2022-08-04T09:03:15.213Z,62.99
2022-08-04T09:05:51.564Z,60.05
2022-08-04T09:08:22.179Z,62.63
2022-08-04T09:10:52.685Z,62.80
2022-08-04T09:13:28.994Z,56.18
2022-08-04T09:16:02.389Z,56.64
2022-08-04T09:18:49.381Z,57.32
2022-08-04T09:21:32.539Z,59.08
2022-08-04T09:24:35.540Z,57.92
2022-08-04T09:26:43.565Z,56.93
2022-08-04T09:29:16.709Z,55.14
2022-08-04T09:32:07.211Z,55.40
2022-08-04T09:34:25.086Z,55.62
2022-08-04T09:37:09.183Z,55.24
2022-08-04T09:39:45.150Z,52.69
2022-08-04T09:42:25.686Z,55.01
2022-08-04T09:45:06.058Z,52.10
2022-08-04T09:47:51.989Z,50.40
2022-08-04T09:50:37.072Z,52.46
2022-08-04T09:53:23.816Z,48.79
2022-08-04T09:56:06.237Z,53.90
2022-08-04T09:58:37.256Z,54.05
2022-08-04T10:01:13.792Z,49.61
2022-08-04T10:03:44.028Z,49.51
2022-08-04T10:06:23.318Z,48.93
2022-08-04T10:09:10.231Z,52.70
2022-08-04T10:11:55.778Z,49.06
2022-08-04T10:14:12.316Z,48.30
2022-08-04T10:16:48.460Z,49.03
2022-08-04T10:19:21.716Z,48.94
2022-08-04T10:21:59.720Z,48.06
2022-08-04T10:24:28.691Z,46.08
2022-08-04T10:27:05.225Z,45.29
2022-08-04T10:29:41.882Z,44.41
2022-08-04T10:32:21.991Z,48.07
2022-08-04T10:35:12.037Z,48.29
2022-08-04T10:37:58.955Z,48.64
2022-08-04T10:40:38.253Z,51.25
2022-08-04T10:43:21.963Z,46.41
2022-08-04T10:45:47.343Z,48.85
2022-08-04T10:48:34.271Z,50.08
2022-08-04T10:50:57.099Z,48.51
2022-08-04T10:53:25.798Z,47.46
2022-08-04T10:56:06.450Z,44.47
2022-08-04T10:58:46.932Z,50.03
2022-08-04T11:00:59.819Z,48.90
2022-08-04T11:03:30.041Z,45.76
2022-08-04T11:05:59.362Z,48.97
2022-08-04T11:08:31.604Z,43.90
2022-08-04T11:11:02.139Z,46.82
2022-08-04T11:13:32.389Z,45.35
2022-08-04T11:16:02.679Z,47.09
2022-08-04T11:18:33.436Z,48.05
2022-08-04T11:21:06.334Z,45.48
2022-08-04T11:23:36.576Z,45.22
2022-08-04T11:26:13.872Z,47.89
2022-08-04T11:29:03.973Z,46.87
2022-08-04T11:31:32.418Z,45.71
2022-08-04T11:34:08.689Z,46.78
2022-08-04T11:36:44.709Z,46.35
2022-08-04T11:39:17.898Z,46.94
2022-08-04T11:41:55.049Z,44.26
2022-08-04T11:44:25.570Z,46.73
2022-08-04T11:46:55.929Z,45.92
2022-08-04T11:49:29.162Z,47.64
2022-08-04T11:51:59.479Z,45.66
2022-08-04T11:54:28.222Z,41.81
2022-08-04T11:56:57.683Z,42.54
2022-08-04T11:59:27.930Z,45.75
2022-08-04T12:02:20.846Z,43.10
2022-08-04T12:04:54.460Z,44.41
2022-08-04T12:07:41.852Z,43.48
2022-08-04T12:10:41.406Z,42.76
2022-08-04T12:13:12.378Z,42.06
2022-08-04T12:15:46.607Z,42.34
2022-08-04T12:18:16.835Z,43.85
2022-08-04T12:20:48.795Z,41.97
2022-08-04T12:23:25.522Z,43.88
2022-08-04T12:25:55.798Z,45.83
2022-08-04T12:28:26.084Z,45.31
2022-08-04T12:31:01.239Z,43.14
2022-08-04T12:33:41.594Z,42.39
2022-08-04T12:36:19.185Z,41.89
2022-08-04T12:38:47.646Z,42.46
2022-08-04T12:41:17.919Z,42.80
2022-08-04T12:43:47.382Z,45.56
2022-08-04T12:46:23.828Z,43.95
2022-08-04T12:48:53.310Z,41.68
2022-08-04T12:51:57.950Z,42.14
2022-08-04T12:53:58.272Z,42.58
2022-08-04T12:56:28.869Z,41.14
2022-08-04T12:59:04.985Z,42.08
2022-08-04T13:02:10.206Z,43.04
2022-08-04T13:04:07.264Z,44.93
2022-08-04T13:06:37.011Z,47.24
2022-08-04T13:09:09.343Z,40.15
2022-08-04T13:11:42.112Z,44.77
2022-08-04T13:14:26.680Z,42.28
2022-08-04T13:16:46.508Z,43.30
2022-08-04T13:19:15.248Z,42.87
2022-08-04T13:21:50.270Z,43.49
2022-08-04T13:24:21.247Z,43.47
2022-08-04T13:27:03.291Z,40.89
2022-08-04T13:29:59.660Z,48.93
2022-08-04T13:32:14.454Z,44.13
2022-08-04T13:34:48.921Z,45.69
2022-08-04T13:37:20.791Z,41.08
2022-08-04T13:39:55.136Z,43.48
2022-08-04T13:42:17.803Z,41.40
2022-08-04T13:44:48.812Z,43.90
2022-08-04T13:47:22.885Z,43.58
2022-08-04T13:50:12.135Z,42.11
2022-08-04T13:52:45.059Z,45.83
2022-08-04T13:55:24.548Z,42.64
2022-08-04T13:57:57.552Z,39.11
2022-08-04T14:00:33.397Z,42.84
2022-08-04T14:03:02.594Z,41.57
2022-08-04T14:05:36.952Z,45.79
2022-08-04T14:08:06.722Z,41.78
2022-08-04T14:10:37.098Z,41.18
2022-08-04T14:13:07.187Z,42.36
2022-08-04T14:16:01.455Z,48.63
2022-08-04T14:18:20.066Z,42.04
2022-08-04T14:21:06.946Z,42.49
2022-08-04T14:23:47.556Z,44.09
2022-08-04T14:26:18.303Z,45.44
2022-08-04T14:29:25.404Z,42.05
2022-08-04T14:31:19.350Z,42.71
2022-08-04T14:34:01.918Z,43.78
2022-08-04T14:36:22.441Z,41.10
2022-08-04T14:38:51.591Z,42.54
2022-08-04T14:41:29.787Z,40.91
2022-08-04T14:43:59.799Z,43.25
2022-08-04T14:46:30.338Z,39.29
2022-08-04T14:49:04.304Z,42.72
2022-08-04T14:51:36.618Z,42.68
2022-08-04T14:54:08.957Z,41.98
2022-08-04T14:56:46.706Z,42.85
2022-08-04T14:59:09.586Z,40.80
2022-08-04T15:01:43.751Z,43.62
2022-08-04T15:04:13.307Z,45.67
2022-08-04T15:06:42.404Z,39.46
2022-08-04T15:09:11.896Z,42.40
2022-08-04T15:11:44.658Z,38.84
2022-08-04T15:14:36.190Z,42.39
2022-08-04T15:16:53.876Z,41.35
2022-08-04T15:19:15.395Z,39.50
2022-08-04T15:21:44.399Z,39.88
2022-08-04T15:24:14.568Z,42.93
2022-08-04T15:26:44.815Z,40.94
2022-08-04T15:29:16.799Z,40.74
2022-08-04T15:32:06.428Z,39.98
2022-08-04T15:34:23.411Z,39.38
2022-08-04T15:36:57.237Z,40.87
2022-08-04T15:39:42.743Z,39.75
2022-08-04T15:42:21.277Z,42.55
2022-08-04T15:44:48.977Z,40.60
2022-08-04T15:47:17.928Z,42.99
2022-08-04T15:49:46.714Z,40.14
2022-08-04T15:52:18.330Z,41.34
2022-08-04T15:54:52.757Z,41.23
2022-08-04T15:57:18.037Z,39.99
2022-08-04T16:00:03.284Z,39.75
2022-08-04T16:02:43.684Z,41.43
2022-08-04T16:05:18.659Z,40.68
2022-08-04T16:07:56.302Z,41.02
2022-08-04T16:10:34.172Z,41.29
2022-08-04T16:13:07.316Z,39.90
2022-08-04T16:15:37.569Z,42.39
2022-08-04T16:18:13.812Z,41.94
2022-08-04T16:20:38.669Z,42.23
2022-08-04T16:23:37.309Z,42.92
2022-08-04T16:25:51.212Z,43.94
2022-08-04T16:28:37.980Z,43.80
2022-08-04T16:31:07.568Z,44.42
2022-08-04T16:33:43.822Z,45.88
2022-08-04T16:36:10.620Z,46.04
2022-08-04T16:38:57.813Z,47.74
2022-08-04T16:41:43.770Z,48.91
2022-08-04T16:44:52.129Z,46.35
2022-08-04T16:47:22.213Z,47.75
2022-08-04T16:49:34.468Z,47.47
2022-08-04T16:52:09.431Z,49.21
2022-08-04T16:54:38.034Z,48.33
2022-08-04T16:57:10.510Z,48.08
2022-08-04T16:59:40.225Z,48.00
2022-08-04T17:02:10.233Z,47.54
2022-08-04T17:04:39.341Z,47.40
2022-08-04T17:07:09.821Z,47.93
2022-08-04T17:09:38.713Z,48.69
2022-08-04T17:12:07.587Z,48.18
2022-08-04T17:14:36.476Z,49.61
2022-08-04T17:17:08.925Z,48.57
2022-08-04T17:19:36.363Z,50.91
2022-08-04T17:22:10.219Z,48.05
2022-08-04T17:24:40.675Z,49.31
2022-08-04T17:28:08.931Z,50.15
2022-08-04T17:29:45.236Z,50.23
2022-08-04T17:32:16.166Z,49.24
2022-08-04T17:34:46.403Z,50.30
2022-08-04T17:39:49.172Z,50.66
2022-08-04T17:42:31.318Z,51.91
2022-08-04T17:45:41.470Z,51.35
2022-08-04T17:47:39.350Z,49.05
2022-08-04T17:50:11.505Z,50.94
2022-08-04T17:52:45.511Z,53.31
2022-08-04T17:55:16.389Z,52.62
2022-08-04T17:57:41.842Z,51.95
2022-08-04T18:00:19.343Z,53.07
2022-08-04T18:02:44.258Z,53.51
2022-08-04T18:05:16.133Z,54.93
2022-08-04T18:08:38.344Z,54.70
2022-08-04T18:10:30.899Z,55.88
2022-08-04T18:12:47.120Z,54.45
2022-08-04T18:15:23.037Z,55.03
2022-08-04T18:18:22.624Z,55.49
2022-08-04T18:20:25.880Z,56.01
2022-08-04T18:22:55.289Z,56.33
2022-08-04T18:25:50.317Z,57.84
2022-08-04T18:27:57.091Z,57.52
2022-08-04T18:30:38.196Z,57.55
2022-08-04T18:33:10.570Z,56.02
2022-08-04T18:36:34.198Z,57.39
2022-08-04T18:38:07.126Z,58.54
2022-08-04T18:40:42.078Z,58.00
2022-08-04T18:43:06.114Z,59.47
2022-08-04T18:45:35.277Z,59.19
2022-08-04T18:48:14.522Z,59.41
2022-08-04T18:51:10.142Z,60.77
2022-08-04T18:53:05.782Z,61.48
2022-08-04T18:55:57.017Z,62.28
2022-08-04T18:58:13.628Z,63.84
2022-08-04T19:00:45.142Z,65.25
2022-08-04T19:03:11.451Z,66.44
2022-08-04T19:05:41.850Z,69.11
2022-08-04T19:10:41.175Z,71.05
2022-08-04T19:13:25.290Z,73.53
2022-08-04T19:15:41.714Z,76.21
2022-08-04T19:18:12.126Z,76.45
2022-08-04T19:20:42.486Z,79.49
2022-08-04T19:24:27.515Z,81.14
2022-08-04T19:25:59.060Z,82.52
2022-08-04T19:28:19.342Z,83.32
2022-08-04T19:30:49.705Z,84.18
2022-08-04T19:33:20.222Z,86.64
2022-08-04T19:35:50.968Z,86.19
2022-08-04T19:38:20.977Z,88.71
2022-08-04T19:43:23.009Z,89.22
2022-08-04T19:45:52.973Z,88.20
2022-08-04T19:48:23.736Z,86.01
2022-08-04T19:50:55.570Z,87.56
2022-08-04T19:53:37.636Z,84.74
2022-08-04T19:55:54.936Z,81.20
2022-08-04T19:58:26.033Z,79.57
2022-08-04T20:00:55.599Z,77.46
2022-08-04T20:04:08.438Z,79.53
2022-08-04T20:05:55.960Z,80.96
2022-08-04T20:08:27.996Z,81.08
2022-08-04T20:10:57.610Z,80.92
2022-08-04T20:13:37.213Z,78.37
2022-08-04T20:15:59.238Z,81.96
2022-08-04T20:18:55.633Z,77.83
2022-08-04T20:21:04.290Z,80.33
2022-08-04T20:23:47.706Z,79.39
2022-08-04T20:26:05.264Z,78.63
2022-08-04T20:28:38.503Z,77.86
2022-08-04T20:31:07.991Z,79.51
2022-08-04T20:33:36.847Z,79.96
2022-08-04T20:36:06.671Z,80.01
2022-08-04T20:38:35.603Z,79.62
2022-08-04T20:41:05.420Z,79.18
2022-08-04T20:43:34.700Z,82.95
2022-08-04T20:46:18.047Z,83.57
2022-08-04T20:48:36.688Z,84.44
2022-08-04T20:51:05.693Z,88.02
2022-08-04T20:53:52.832Z,83.34
2022-08-04T20:56:05.011Z,86.85
2022-08-04T20:58:35.373Z,87.26
2022-08-04T21:01:05.150Z,87.62
2022-08-04T21:04:00.842Z,81.68
2022-08-04T21:06:23.713Z,81.24
2022-08-04T21:08:57.244Z,81.86
2022-08-04T21:11:23.399Z,81.47
2022-08-04T21:13:52.907Z,82.78
2022-08-04T21:16:53.600Z,78.65
2022-08-04T21:18:52.106Z,81.36
2022-08-04T21:21:20.851Z,80.46
2022-08-04T21:23:51.216Z,83.91
2022-08-04T21:26:25.913Z,78.80
2022-08-04T21:28:54.337Z,78.02
2022-08-04T21:31:23.075Z,79.07
2022-08-04T21:33:52.216Z,77.60
2022-08-04T21:36:21.339Z,79.27
2022-08-04T21:38:51.401Z,79.21
2022-08-04T21:41:25.090Z,78.04
2022-08-04T21:43:51.430Z,78.76
2022-08-04T21:46:20.172Z,76.67
2022-08-04T21:48:49.466Z,77.59
2022-08-04T21:51:22.005Z,76.97
2022-08-04T21:53:53.833Z,79.03
2022-08-04T21:56:26.489Z,80.69
2022-08-04T21:58:51.745Z,80.53
2022-08-04T22:01:50.660Z,79.84
2022-08-04T22:03:57.193Z,83.64
2022-08-04T22:06:28.064Z,82.22
2022-08-04T22:08:53.591Z,82.53
2022-08-04T22:11:48.469Z,82.33
2022-08-04T22:14:11.640Z,82.09
2022-08-04T22:16:34.775Z,84.31
2022-08-04T22:19:04.285Z,78.10
2022-08-04T22:21:39.312Z,79.81
2022-08-04T22:24:05.627Z,79.18
2022-08-04T22:26:36.048Z,77.86
2022-08-04T22:29:06.154Z,77.78
2022-08-04T22:31:55.982Z,79.13
2022-08-04T22:34:05.492Z,80.27
2022-08-04T22:36:34.822Z,80.74
2022-08-04T22:39:07.565Z,79.10
2022-08-04T22:42:03.136Z,79.73
2022-08-04T22:44:06.412Z,79.11
2022-08-04T22:46:36.261Z,80.01
2022-08-04T22:49:05.278Z,79.88
2022-08-04T22:51:34.052Z,79.56
2022-08-04T22:54:12.465Z,80.15
2022-08-04T22:56:37.738Z,80.19
2022-08-04T22:59:04.773Z,82.12
2022-08-04T23:01:58.018Z,80.37
2022-08-04T23:04:09.450Z,82.65
2022-08-04T23:06:39.724Z,84.85
2022-08-04T23:09:11.837Z,86.76
2022-08-04T23:11:43.352Z,85.28
2022-08-04T23:14:11.461Z,83.89
2022-08-04T23:16:42.257Z,84.48
2022-08-04T23:19:15.345Z,85.15
2022-08-04T23:21:47.936Z,85.42
2022-08-04T23:24:13.266Z,85.97
2022-08-04T23:26:42.268Z,86.61
2022-08-04T23:29:12.170Z,88.38
2022-08-04T23:32:00.176Z,89.22
2022-08-04T23:34:12.492Z,87.80
2022-08-04T23:36:41.464Z,86.92
2022-08-04T23:39:12.139Z,88.60
2022-08-04T23:41:55.292Z,89.61
2022-08-04T23:44:12.581Z,89.06
2022-08-04T23:46:42.919Z,88.51
2022-08-04T23:49:16.859Z,89.17
2022-08-04T23:51:44.733Z,89.53
2022-08-04T23:54:15.088Z,88.82
2022-08-04T23:56:44.285Z,88.74
2022-08-04T23:59:17.878Z,89.98
